createdAt,value
2023-05-10T00:01:37.589Z,12.22
2023-05-10T00:04:05.092Z,12.21
2023-05-10T00:06:32.621Z,12.13
2023-05-10T00:08:59.449Z,12.08
2023-05-10T00:11:26.292Z,12.05
2023-05-10T00:13:53.194Z,12.00
2023-05-10T00:16:20.174Z,11.93
2023-05-10T00:18:47.157Z,11.91
2023-05-10T00:21:14.055Z,11.83
2023-05-10T00:23:41.001Z,11.79
2023-05-10T00:26:07.901Z,11.77
2023-05-10T00:28:34.834Z,11.73
2023-05-10T00:31:01.647Z,11.69
2023-05-10T00:33:28.425Z,11.64
2023-05-10T00:35:55.193Z,11.60
2023-05-10T00:38:22.145Z,11.59
2023-05-10T00:40:49.065Z,11.57
2023-05-10T00:43:15.836Z,11.53
2023-05-10T00:45:42.709Z,11.47
2023-05-10T00:48:09.830Z,11.43
2023-05-10T00:50:36.955Z,11.41
2023-05-10T00:53:04.049Z,11.35
2023-05-10T00:55:31.652Z,11.31
2023-05-10T00:57:58.701Z,11.27
2023-05-10T01:00:26.826Z,11.25
2023-05-10T01:02:55.026Z,11.21
2023-05-10T01:05:22.219Z,11.17
2023-05-10T01:07:49.252Z,11.13
2023-05-10T01:10:16.868Z,11.09
2023-05-10T01:12:54.058Z,11.07
2023-05-10T01:15:21.954Z,11.03
2023-05-10T01:17:50.047Z,10.99
2023-05-10T01:20:17.369Z,10.96
2023-05-10T01:23:24.314Z,10.92
2023-05-10T01:26:10.089Z,10.92
2023-05-10T01:29:06.074Z,10.88
2023-05-10T01:31:54.780Z,10.82
2023-05-10T01:34:26.670Z,10.79
2023-05-10T01:37:03.950Z,10.74
2023-05-10T01:39:45.099Z,10.67
2023-05-10T01:42:18.116Z,10.62
2023-05-10T01:44:56.404Z,10.59
2023-05-10T01:47:38.358Z,10.57
2023-05-10T01:50:11.153Z,10.51
2023-05-10T01:52:42.031Z,10.49
2023-05-10T01:55:17.742Z,10.43
2023-05-10T01:57:47.561Z,10.38
2023-05-10T02:00:16.499Z,10.35
2023-05-10T02:02:48.435Z,10.33
2023-05-10T02:05:17.265Z,10.28
2023-05-10T02:07:45.394Z,10.24
2023-05-10T02:10:14.598Z,10.23
2023-05-10T02:12:48.724Z,10.19
2023-05-10T02:15:19.780Z,10.16
2023-05-10T02:17:48.423Z,10.13
2023-05-10T02:20:18.380Z,10.10
2023-05-10T02:22:48.142Z,10.08
2023-05-10T02:25:16.668Z,10.05
2023-05-10T02:27:45.709Z,10.04
2023-05-10T02:30:13.121Z,10.00
2023-05-10T02:32:40.716Z,10.00
2023-05-10T02:35:09.421Z,9.95
2023-05-10T02:37:38.534Z,9.94
2023-05-10T02:40:07.296Z,9.91
2023-05-10T02:42:38.288Z,9.89
2023-05-10T02:45:11.905Z,9.87
2023-05-10T02:47:39.225Z,9.80
2023-05-10T02:50:06.722Z,9.80
2023-05-10T02:52:49.257Z,9.75
2023-05-10T02:55:17.935Z,9.74
2023-05-10T02:57:59.434Z,9.69
2023-05-10T03:00:26.846Z,9.71
2023-05-10T03:02:54.247Z,9.70
2023-05-10T03:05:21.577Z,9.67
2023-05-10T03:07:49.319Z,9.68
2023-05-10T03:10:16.525Z,9.68
2023-05-10T03:13:12.437Z,9.65
2023-05-10T03:16:06.903Z,9.62
2023-05-10T03:18:48.499Z,9.58
2023-05-10T03:21:19.039Z,9.55
2023-05-10T03:24:00.981Z,9.50
2023-05-10T03:26:29.275Z,9.51
2023-05-10T03:28:59.978Z,9.47
2023-05-10T03:31:26.872Z,9.42
2023-05-10T03:33:54.079Z,9.40
2023-05-10T03:36:20.945Z,9.41
2023-05-10T03:38:48.060Z,9.39
2023-05-10T03:41:15.176Z,9.36
2023-05-10T03:43:42.595Z,9.37
2023-05-10T03:46:09.365Z,9.38
2023-05-10T03:48:36.208Z,9.34
2023-05-10T03:51:03.219Z,9.32
2023-05-10T03:53:30.036Z,9.30
2023-05-10T03:55:56.952Z,9.28
2023-05-10T03:58:23.720Z,9.28
2023-05-10T04:00:50.740Z,9.28
2023-05-10T04:03:18.227Z,9.26
2023-05-10T04:05:45.153Z,9.25
2023-05-10T04:08:12.008Z,9.22
2023-05-10T04:10:38.970Z,9.23
2023-05-10T04:13:05.824Z,9.23
2023-05-10T04:15:32.705Z,9.23
2023-05-10T04:17:59.715Z,9.28
2023-05-10T04:20:26.621Z,9.32
2023-05-10T04:22:53.411Z,9.33
2023-05-10T04:25:20.599Z,9.36
2023-05-10T04:27:47.476Z,9.37
2023-05-10T04:30:14.563Z,9.39
2023-05-10T04:32:41.531Z,9.40
2023-05-10T04:35:08.824Z,9.45
2023-05-10T04:37:35.709Z,9.47
2023-05-10T04:40:03.161Z,9.49
2023-05-10T04:42:30.138Z,9.52
2023-05-10T04:44:56.890Z,9.54
2023-05-10T04:47:23.728Z,9.56
2023-05-10T04:49:50.469Z,9.59
2023-05-10T04:52:18.491Z,9.63
2023-05-10T04:54:45.369Z,9.68
2023-05-10T04:57:12.238Z,9.73
2023-05-10T04:59:39.027Z,9.77
2023-05-10T05:02:06.154Z,9.83
2023-05-10T05:04:33.187Z,9.90
2023-05-10T05:07:00.148Z,9.97
2023-05-10T05:09:26.952Z,10.04
2023-05-10T05:11:53.797Z,10.09
2023-05-10T05:14:22.049Z,10.12
2023-05-10T05:16:48.889Z,10.18
2023-05-10T05:19:15.641Z,10.24
2023-05-10T05:21:42.419Z,10.29
2023-05-10T05:24:09.608Z,10.37
2023-05-10T05:26:36.513Z,10.44
2023-05-10T05:29:03.978Z,10.51
2023-05-10T05:31:31.007Z,10.59
2023-05-10T05:33:57.831Z,10.66
2023-05-10T05:36:24.633Z,10.73
2023-05-10T05:38:51.383Z,10.80
2023-05-10T05:41:18.139Z,10.88
2023-05-10T05:43:44.943Z,10.96
2023-05-10T05:46:11.774Z,11.03
2023-05-10T05:48:38.587Z,11.11
2023-05-10T05:51:07.302Z,11.19
2023-05-10T05:53:34.306Z,11.26
2023-05-10T05:56:01.139Z,11.33
2023-05-10T05:58:28.164Z,11.41
2023-05-10T06:00:55.270Z,11.48
2023-05-10T06:03:22.286Z,11.56
2023-05-10T06:05:49.497Z,11.63
2023-05-10T06:08:16.471Z,11.70
2023-05-10T06:10:43.258Z,11.77
2023-05-10T06:13:10.097Z,11.84
2023-05-10T06:15:36.962Z,11.90
2023-05-10T06:18:03.927Z,11.96
2023-05-10T06:20:32.629Z,12.02
2023-05-10T06:22:59.782Z,12.06
2023-05-10T06:25:26.754Z,12.13
2023-05-10T06:27:58.304Z,12.20
2023-05-10T06:30:29.373Z,12.26
2023-05-10T06:32:56.799Z,12.33
2023-05-10T06:35:24.032Z,12.39
2023-05-10T06:37:51.454Z,12.46
2023-05-10T06:40:19.007Z,12.53
2023-05-10T06:42:46.799Z,12.59
2023-05-10T06:45:14.452Z,12.67
2023-05-10T06:47:41.938Z,12.73
2023-05-10T06:50:09.627Z,12.82
2023-05-10T06:52:36.729Z,12.88
2023-05-10T06:55:04.658Z,12.97
2023-05-10T06:57:32.305Z,13.07
2023-05-10T07:00:00.219Z,13.15
2023-05-10T07:02:28.307Z,13.25
2023-05-10T07:04:55.364Z,13.32
2023-05-10T07:07:22.377Z,13.40
2023-05-10T07:09:50.030Z,13.48
2023-05-10T07:12:17.022Z,13.55
2023-05-10T07:14:43.855Z,13.65
2023-05-10T07:17:11.047Z,13.73
2023-05-10T07:19:38.050Z,13.82
2023-05-10T07:22:04.920Z,13.92
2023-05-10T07:24:33.124Z,14.00
2023-05-10T07:27:00.312Z,14.08
2023-05-10T07:29:27.236Z,14.15
2023-05-10T07:31:55.373Z,14.25
2023-05-10T07:34:23.970Z,14.35
2023-05-10T07:36:50.799Z,14.44
2023-05-10T07:39:26.659Z,14.54
2023-05-10T07:41:55.858Z,14.62
2023-05-10T07:44:22.779Z,14.72
2023-05-10T07:46:49.765Z,14.82
2023-05-10T07:49:16.998Z,14.91
2023-05-10T07:51:44.121Z,14.99
2023-05-10T07:54:11.105Z,15.06
2023-05-10T07:56:38.049Z,15.13
2023-05-10T07:59:07.440Z,15.19
2023-05-10T08:01:35.697Z,15.24
2023-05-10T08:04:03.372Z,15.33
2023-05-10T08:06:31.353Z,15.38
2023-05-10T08:08:58.523Z,15.47
2023-05-10T08:11:26.023Z,15.53
2023-05-10T08:13:53.356Z,15.59
2023-05-10T08:16:20.629Z,15.68
2023-05-10T08:18:48.436Z,15.73
2023-05-10T08:21:16.583Z,15.81
2023-05-10T08:23:45.166Z,15.87
2023-05-10T08:26:12.794Z,15.94
2023-05-10T08:28:39.843Z,16.03
2023-05-10T08:31:06.881Z,16.10
2023-05-10T08:33:33.957Z,16.17
2023-05-10T08:36:01.041Z,16.25
2023-05-10T08:38:28.167Z,16.32
2023-05-10T08:40:58.068Z,16.41
2023-05-10T08:43:29.827Z,16.49
2023-05-10T08:45:57.976Z,16.55
2023-05-10T08:48:26.212Z,16.63
2023-05-10T08:50:57.712Z,16.72
2023-05-10T08:53:27.701Z,16.80
2023-05-10T08:55:55.110Z,16.87
2023-05-10T08:58:21.985Z,16.98
2023-05-10T09:00:51.062Z,17.08
2023-05-10T09:03:17.890Z,17.18
2023-05-10T09:05:45.827Z,17.26
2023-05-10T09:08:14.035Z,17.36
2023-05-10T09:10:43.310Z,17.44
2023-05-10T09:13:12.202Z,17.53
2023-05-10T09:15:39.619Z,17.59
2023-05-10T09:18:06.597Z,17.70
2023-05-10T09:20:33.492Z,17.77
2023-05-10T09:23:00.446Z,17.85
2023-05-10T09:25:27.501Z,17.96
2023-05-10T09:27:54.429Z,18.10
2023-05-10T09:30:31.193Z,18.19
2023-05-10T09:33:00.032Z,18.27
2023-05-10T09:35:29.991Z,18.30
2023-05-10T09:38:02.040Z,18.39
2023-05-10T09:40:30.675Z,18.44
2023-05-10T09:43:07.362Z,18.49
2023-05-10T09:45:38.259Z,18.55
2023-05-10T09:48:06.431Z,18.58
2023-05-10T09:50:33.389Z,18.65
2023-05-10T09:53:03.763Z,18.74
2023-05-10T09:55:39.757Z,18.83
2023-05-10T09:58:11.536Z,18.95
2023-05-10T10:00:43.898Z,19.06
2023-05-10T10:03:22.206Z,19.13
2023-05-10T10:05:49.650Z,19.22
2023-05-10T10:08:16.860Z,19.27
2023-05-10T10:10:47.255Z,19.36
2023-05-10T10:13:15.140Z,19.40
2023-05-10T10:15:44.160Z,19.43
2023-05-10T10:18:15.777Z,19.45
2023-05-10T10:20:43.217Z,19.48
2023-05-10T10:23:10.837Z,19.55
2023-05-10T10:25:39.302Z,19.60
2023-05-10T10:28:27.527Z,19.62
2023-05-10T10:30:56.903Z,19.69
2023-05-10T10:33:59.747Z,19.75
2023-05-10T10:36:28.324Z,19.86
2023-05-10T10:38:59.032Z,19.94
2023-05-10T10:41:31.836Z,19.99
2023-05-10T10:44:39.007Z,20.06
2023-05-10T10:47:32.058Z,20.20
2023-05-10T10:49:58.980Z,20.30
2023-05-10T10:52:34.368Z,20.36
2023-05-10T10:55:25.998Z,20.45
2023-05-10T10:58:01.173Z,20.54
2023-05-10T11:00:37.524Z,20.67
2023-05-10T11:03:14.589Z,20.79
2023-05-10T11:05:45.562Z,20.94
2023-05-10T11:08:12.483Z,21.06
2023-05-10T11:10:40.133Z,21.12
2023-05-10T11:13:08.985Z,21.17
2023-05-10T11:15:39.112Z,21.21
2023-05-10T11:18:28.913Z,21.26
2023-05-10T11:21:01.047Z,21.39
2023-05-10T11:23:51.853Z,21.51
2023-05-10T11:26:19.824Z,21.60
2023-05-10T11:28:48.301Z,21.70
2023-05-10T11:31:19.597Z,21.76
2023-05-10T11:33:51.837Z,21.84
2023-05-10T11:36:20.903Z,21.89
2023-05-10T11:38:49.052Z,21.92
2023-05-10T11:41:17.983Z,21.96
2023-05-10T11:43:48.773Z,21.96
2023-05-10T11:48:43.697Z,21.94
2023-05-10T11:51:11.918Z,21.96
2023-05-10T11:53:39.310Z,21.99
2023-05-10T11:56:12.436Z,22.03
2023-05-10T11:58:40.654Z,22.10
2023-05-10T12:01:08.915Z,22.15
2023-05-10T12:03:36.655Z,22.29
2023-05-10T12:06:04.214Z,22.37
2023-05-10T12:08:31.966Z,22.42
2023-05-10T12:11:11.439Z,22.49
2023-05-10T12:13:42.357Z,22.58
2023-05-10T12:16:16.832Z,22.67
2023-05-10T12:18:43.802Z,22.75
2023-05-10T12:21:12.682Z,22.78
2023-05-10T12:23:40.837Z,22.85
2023-05-10T12:26:10.582Z,22.90
2023-05-10T12:28:38.653Z,22.92
2023-05-10T12:31:06.799Z,22.98
2023-05-10T12:33:44.994Z,23.00
2023-05-10T12:36:14.232Z,23.02
2023-05-10T12:38:45.432Z,23.00
2023-05-10T12:41:14.483Z,22.98
2023-05-10T12:43:41.798Z,23.00
2023-05-10T12:46:17.597Z,23.03
2023-05-10T12:48:46.332Z,23.07
2023-05-10T12:51:16.297Z,23.00
2023-05-10T12:53:46.163Z,23.02
2023-05-10T12:56:14.083Z,23.07
2023-05-10T12:58:41.321Z,23.13
2023-05-10T13:01:08.107Z,23.18
2023-05-10T13:03:34.880Z,23.28
2023-05-10T13:06:01.674Z,23.32
2023-05-10T13:08:30.735Z,23.37
2023-05-10T13:10:57.629Z,23.36
2023-05-10T13:13:24.497Z,23.37
2023-05-10T13:15:51.405Z,23.35
2023-05-10T13:18:18.397Z,23.34
2023-05-10T13:20:45.490Z,23.35
2023-05-10T13:23:12.369Z,23.38
2023-05-10T13:25:39.211Z,23.41
2023-05-10T13:28:05.984Z,23.45
2023-05-10T13:30:32.856Z,23.48
2023-05-10T13:32:59.720Z,23.51
2023-05-10T13:35:26.527Z,23.52
2023-05-10T13:37:54.497Z,23.55
2023-05-10T13:40:21.301Z,23.55
2023-05-10T13:42:48.810Z,23.55
2023-05-10T13:45:15.932Z,23.55
2023-05-10T13:47:43.085Z,23.54
2023-05-10T13:50:10.156Z,23.54
2023-05-10T13:52:36.983Z,23.52
2023-05-10T13:55:04.095Z,23.51
2023-05-10T13:57:31.526Z,23.49
2023-05-10T13:59:58.612Z,23.46
2023-05-10T14:02:25.782Z,23.43
2023-05-10T14:04:55.292Z,23.39
2023-05-10T14:07:23.707Z,23.36
2023-05-10T14:09:50.541Z,23.33
2023-05-10T14:12:17.344Z,23.29
2023-05-10T14:14:44.162Z,23.26
2023-05-10T14:17:12.413Z,23.22
2023-05-10T14:19:40.075Z,23.19
2023-05-10T14:22:07.139Z,23.17
2023-05-10T14:24:34.026Z,23.14
2023-05-10T14:27:01.230Z,23.11
2023-05-10T14:29:28.367Z,23.08
2023-05-10T14:31:55.307Z,23.04
2023-05-10T14:34:22.159Z,23.01
2023-05-10T14:36:48.947Z,22.98
2023-05-10T14:39:16.080Z,22.95
2023-05-10T14:41:44.012Z,22.94
2023-05-10T14:44:11.789Z,22.95
2023-05-10T14:46:39.178Z,22.96
2023-05-10T14:49:06.262Z,22.99
2023-05-10T14:51:33.144Z,23.01
2023-05-10T14:54:00.117Z,23.04
2023-05-10T14:56:27.182Z,23.05
2023-05-10T14:58:54.023Z,23.05
2023-05-10T15:01:21.349Z,23.07
2023-05-10T15:03:48.798Z,23.07
2023-05-10T15:06:18.999Z,23.05
2023-05-10T15:08:45.850Z,23.02
2023-05-10T15:11:12.700Z,22.98
2023-05-10T15:13:39.623Z,22.94
2023-05-10T15:16:06.532Z,22.89
2023-05-10T15:18:33.407Z,22.84
2023-05-10T15:21:00.247Z,22.82
2023-05-10T15:23:27.652Z,22.77
2023-05-10T15:25:56.883Z,22.73
2023-05-10T15:28:23.822Z,22.69
2023-05-10T15:30:51.037Z,22.63
2023-05-10T15:33:17.906Z,22.60
2023-05-10T15:35:44.875Z,22.55
2023-05-10T15:38:11.779Z,22.53
2023-05-10T15:40:38.721Z,22.51
2023-05-10T15:43:06.385Z,22.47
2023-05-10T15:45:35.150Z,22.44
2023-05-10T15:48:03.694Z,22.40
2023-05-10T15:50:30.561Z,22.36
2023-05-10T15:52:57.473Z,22.31
2023-05-10T15:55:24.405Z,22.28
2023-05-10T15:57:51.491Z,22.25
2023-05-10T16:00:19.117Z,22.20
2023-05-10T16:02:46.314Z,22.16
2023-05-10T16:05:14.076Z,22.14
2023-05-10T16:07:42.108Z,22.11
2023-05-10T16:10:11.070Z,22.08
2023-05-10T16:12:38.942Z,22.06
2023-05-10T16:15:06.843Z,22.03
2023-05-10T16:17:33.787Z,22.02
2023-05-10T16:20:01.259Z,22.00
2023-05-10T16:22:28.895Z,21.97
2023-05-10T16:24:57.478Z,21.95
2023-05-10T16:27:24.306Z,21.92
2023-05-10T16:29:51.170Z,21.91
2023-05-10T16:32:17.985Z,21.88
2023-05-10T16:34:44.862Z,21.87
2023-05-10T16:37:11.770Z,21.83
2023-05-10T16:39:38.644Z,21.81
2023-05-10T16:42:05.733Z,21.80
2023-05-10T16:44:32.651Z,21.77
2023-05-10T16:46:59.551Z,21.75
2023-05-10T16:49:26.762Z,21.73
2023-05-10T16:51:53.716Z,21.71
2023-05-10T16:54:21.990Z,21.70
2023-05-10T16:56:48.893Z,21.68
2023-05-10T16:59:16.473Z,21.66
2023-05-10T17:01:43.682Z,21.64
2023-05-10T17:04:10.589Z,21.62
2023-05-10T17:06:37.713Z,21.59
2023-05-10T17:09:05.702Z,21.56
2023-05-10T17:11:32.836Z,21.54
2023-05-10T17:14:01.443Z,21.54
2023-05-10T17:16:29.927Z,21.50
2023-05-10T17:18:56.868Z,21.47
2023-05-10T17:21:23.729Z,21.43
2023-05-10T17:23:50.575Z,21.40
2023-05-10T17:26:17.447Z,21.37
2023-05-10T17:28:44.305Z,21.33
2023-05-10T17:31:11.807Z,21.30
2023-05-10T17:33:38.833Z,21.26
2023-05-10T17:36:05.947Z,21.23
2023-05-10T17:38:32.892Z,21.18
2023-05-10T17:40:59.747Z,21.15
2023-05-10T17:43:26.765Z,21.11
2023-05-10T17:45:53.642Z,21.05
2023-05-10T17:48:20.465Z,20.99
2023-05-10T17:50:50.125Z,20.96
2023-05-10T17:53:16.997Z,20.88
2023-05-10T17:55:43.918Z,20.84
2023-05-10T17:58:12.133Z,20.80
2023-05-10T18:00:39.343Z,20.76
2023-05-10T18:03:06.297Z,20.73
2023-05-10T18:05:39.501Z,20.68
2023-05-10T18:08:07.547Z,20.66
2023-05-10T18:10:34.678Z,20.62
2023-05-10T18:13:02.679Z,20.58
2023-05-10T18:15:29.657Z,20.55
2023-05-10T18:17:57.056Z,20.49
2023-05-10T18:20:24.489Z,20.46
2023-05-10T18:22:51.825Z,20.42
2023-05-10T18:25:19.071Z,20.39
2023-05-10T18:27:46.949Z,20.35
2023-05-10T18:30:14.771Z,20.31
2023-05-10T18:32:43.296Z,20.28
2023-05-10T18:35:12.384Z,20.23
2023-05-10T18:37:40.154Z,20.19
2023-05-10T18:40:14.723Z,20.18
2023-05-10T18:42:42.947Z,20.12
2023-05-10T18:45:11.893Z,20.09
2023-05-10T18:47:39.842Z,20.05
2023-05-10T18:50:08.527Z,19.99
2023-05-10T18:52:37.777Z,19.95
2023-05-10T18:55:07.812Z,19.89
2023-05-10T18:57:41.343Z,19.85
2023-05-10T19:00:12.482Z,19.80
2023-05-10T19:02:41.396Z,19.75
2023-05-10T19:05:09.770Z,19.70
2023-05-10T19:07:38.746Z,19.63
2023-05-10T19:10:07.654Z,19.59
2023-05-10T19:12:36.314Z,19.53
2023-05-10T19:15:04.893Z,19.49
2023-05-10T19:17:37.097Z,19.46
2023-05-10T19:20:10.785Z,19.43
2023-05-10T19:22:51.527Z,19.39
2023-05-10T19:25:29.603Z,19.34
2023-05-10T19:27:58.204Z,19.29
2023-05-10T19:30:26.951Z,19.24
2023-05-10T19:32:56.349Z,19.20
2023-05-10T19:35:27.873Z,19.17
2023-05-10T19:37:55.811Z,19.12
2023-05-10T19:40:23.345Z,19.08
2023-05-10T19:42:53.458Z,19.05
2023-05-10T19:45:22.426Z,19.00
2023-05-10T19:47:51.092Z,18.97
2023-05-10T19:50:19.404Z,18.93
2023-05-10T19:52:48.155Z,18.88
2023-05-10T19:55:26.907Z,18.83
2023-05-10T19:57:54.515Z,18.75
2023-05-10T20:00:22.272Z,18.69
2023-05-10T20:02:50.607Z,18.65
2023-05-10T20:05:19.315Z,18.62
2023-05-10T20:07:47.327Z,18.56
2023-05-10T20:10:15.834Z,18.51
2023-05-10T20:12:51.637Z,18.47
2023-05-10T20:15:20.994Z,18.46
2023-05-10T20:17:49.430Z,18.43
2023-05-10T20:20:18.342Z,18.37
2023-05-10T20:22:49.586Z,18.34
2023-05-10T20:25:18.074Z,18.32
2023-05-10T20:27:45.925Z,18.27
2023-05-10T20:30:13.711Z,18.26
2023-05-10T20:32:41.780Z,18.24
2023-05-10T20:35:12.387Z,18.19
2023-05-10T20:37:40.288Z,18.16
2023-05-10T20:40:08.886Z,18.12
2023-05-10T20:42:36.836Z,18.10
2023-05-10T20:45:05.056Z,18.06
2023-05-10T20:47:33.283Z,18.06
2023-05-10T20:50:00.930Z,17.98
2023-05-10T20:52:28.401Z,17.96
2023-05-10T20:54:55.218Z,17.93
2023-05-10T20:57:22.114Z,17.89
2023-05-10T20:59:50.581Z,17.86
2023-05-10T21:02:17.457Z,17.83
2023-05-10T21:04:44.729Z,17.81
2023-05-10T21:07:12.273Z,17.77
2023-05-10T21:09:39.085Z,17.74
2023-05-10T21:12:06.218Z,17.66
2023-05-10T21:14:33.148Z,17.63
2023-05-10T21:17:00.050Z,17.61
2023-05-10T21:19:26.986Z,17.57
2023-05-10T21:21:56.175Z,17.51
2023-05-10T21:24:23.440Z,17.50
2023-05-10T21:26:50.306Z,17.44
2023-05-10T21:29:17.183Z,17.42
2023-05-10T21:31:44.068Z,17.38
2023-05-10T21:34:11.088Z,17.35
2023-05-10T21:36:37.936Z,17.34
2023-05-10T21:39:05.040Z,17.31
2023-05-10T21:41:31.898Z,17.27
2023-05-10T21:43:58.842Z,17.26
2023-05-10T21:46:25.826Z,17.23
2023-05-10T21:48:52.748Z,17.17
2023-05-10T21:51:19.694Z,17.16
2023-05-10T21:53:46.504Z,17.13
2023-05-10T21:56:13.525Z,17.10
2023-05-10T21:58:40.430Z,17.07
2023-05-10T22:01:07.420Z,17.01
2023-05-10T22:03:34.422Z,16.98
2023-05-10T22:06:01.315Z,16.98
2023-05-10T22:08:28.160Z,16.95
2023-05-10T22:10:55.415Z,16.93
2023-05-10T22:13:22.293Z,16.88
2023-05-10T22:15:49.461Z,16.87
2023-05-10T22:18:16.313Z,16.83
2023-05-10T22:20:46.629Z,16.82
2023-05-10T22:23:13.845Z,16.78
2023-05-10T22:25:40.880Z,16.75
2023-05-10T22:28:09.256Z,16.72
2023-05-10T22:30:36.318Z,16.67
2023-05-10T22:33:03.371Z,16.67
2023-05-10T22:35:30.414Z,16.65
2023-05-10T22:37:57.214Z,16.60
2023-05-10T22:40:24.111Z,16.57
2023-05-10T22:42:50.962Z,16.53
2023-05-10T22:45:17.835Z,16.51
2023-05-10T22:47:44.664Z,16.48
2023-05-10T22:50:12.508Z,16.44
2023-05-10T22:52:39.479Z,16.42
2023-05-10T22:55:07.244Z,16.42
2023-05-10T22:57:34.416Z,16.39
2023-05-10T23:00:01.331Z,16.35
2023-05-10T23:02:28.153Z,16.34
2023-05-10T23:04:54.981Z,16.34
2023-05-10T23:07:21.809Z,16.30
2023-05-10T23:09:48.966Z,16.26
2023-05-10T23:12:15.831Z,16.25
2023-05-10T23:14:42.718Z,16.23
2023-05-10T23:17:09.581Z,16.22
2023-05-10T23:19:36.402Z,16.15
2023-05-10T23:22:03.297Z,16.12
2023-05-10T23:24:30.180Z,16.10
2023-05-10T23:26:57.002Z,16.07
2023-05-10T23:29:26.314Z,16.08
2023-05-10T23:31:53.232Z,16.04
2023-05-10T23:34:20.004Z,15.99
2023-05-10T23:36:46.881Z,15.96
2023-05-10T23:39:13.812Z,15.92
2023-05-10T23:41:40.658Z,15.89
2023-05-10T23:44:07.454Z,15.84
2023-05-10T23:46:34.385Z,15.80
2023-05-10T23:49:01.197Z,15.82
2023-05-10T23:51:28.304Z,15.78
2023-05-10T23:53:56.223Z,15.76
2023-05-10T23:56:23.082Z,15.70
2023-05-10T23:58:49.919Z,15.67
